<?xml version="1.0" encoding="utf-8"?>
<gpx xmlns:xsi="http://www.w3.org/2001/XMLSchema-instance" xmlns:xsd="http://www.w3.org/2001/XMLSchema" version="1.1" creator="Shapelink.com" xmlns="http://www.topografix.com/GPX/1/1" xmlns:gpxtpx="http://www.garmin.com/xmlschemas/TrackPointExtension/v1">
  <metadata>
    <name>Walking 0.77 km, 2011-10-25</name>
    <desc></desc>
    <author><name>Alexander Engvall</name></author> 
    <time>2011-10-25T18:52:18Z</time>
  </metadata>
  <trk>
    <name>Walking 0.77 km, 2011-10-25</name>
    <trkseg>
      <trkpt lat="59.4236559235" lon="17.830043938">
        <ele>24.6</ele>
        <time>2011-10-25T18:52:18Z</time>
      </trkpt>
      <trkpt lat="59.4236559235" lon="17.830043938">
        <ele>24.6</ele>
        <time>2011-10-25T18:52:19Z</time>
      </trkpt>
      <trkpt lat="59.4236739445" lon="17.8302329499">
        <ele>25.2</ele>
        <time>2011-10-25T18:52:20Z</time>
      </trkpt>
      <trkpt lat="59.4236739445" lon="17.8302329499">
        <ele>25.2</ele>
        <time>2011-10-25T18:52:21Z</time>
      </trkpt>
      <trkpt lat="59.4236739445" lon="17.8302329499">
        <ele>25.2</ele>
        <time>2011-10-25T18:52:22Z</time>
      </trkpt>
      <trkpt lat="59.4236739445" lon="17.8302329499">
        <ele>25.2</ele>
        <time>2011-10-25T18:52:23Z</time>
      </trkpt>
      <trkpt lat="59.4236739445" lon="17.8302329499">
        <ele>25.2</ele>
        <time>2011-10-25T18:52:24Z</time>
      </trkpt>
      <trkpt lat="59.4237429276" lon="17.8303489555">
        <ele>25.2</ele>
        <time>2011-10-25T18:52:25Z</time>
      </trkpt>
      <trkpt lat="59.4237399939" lon="17.8303349577">
        <ele>25.2</ele>
        <time>2011-10-25T18:52:26Z</time>
      </trkpt>
      <trkpt lat="59.4237449393" lon="17.8303109854">
        <ele>25.2</ele>
        <time>2011-10-25T18:52:27Z</time>
      </trkpt>
      <trkpt lat="59.4237489626" lon="17.8302829899">
        <ele>25</ele>
        <time>2011-10-25T18:52:28Z</time>
      </trkpt>
      <trkpt lat="59.4237539917" lon="17.8302479535">
        <ele>25</ele>
        <time>2011-10-25T18:52:29Z</time>
      </trkpt>
      <trkpt lat="59.4237569254" lon="17.8302299324">
        <ele>25</ele>
        <time>2011-10-25T18:52:30Z</time>
      </trkpt>
      <trkpt lat="59.4237629604" lon="17.8301939741">
        <ele>24.8</ele>
        <time>2011-10-25T18:52:31Z</time>
      </trkpt>
      <trkpt lat="59.4237699173" lon="17.8301609494">
        <ele>24.8</ele>
        <time>2011-10-25T18:52:32Z</time>
      </trkpt>
      <trkpt lat="59.4237789698" lon="17.8301359713">
        <ele>24.6</ele>
        <time>2011-10-25T18:52:33Z</time>
      </trkpt>
      <trkpt lat="59.4237849209" lon="17.8301169444">
        <ele>24.6</ele>
        <time>2011-10-25T18:52:34Z</time>
      </trkpt>
      <trkpt lat="59.4237849209" lon="17.8301169444">
        <ele>24.6</ele>
        <time>2011-10-25T18:52:35Z</time>
      </trkpt>
      <trkpt lat="59.4238009304" lon="17.8300839197">
        <ele>24.6</ele>
        <time>2011-10-25T18:52:36Z</time>
      </trkpt>
      <trkpt lat="59.4238079712" lon="17.8300599474">
        <ele>24.4</ele>
        <time>2011-10-25T18:52:37Z</time>
      </trkpt>
      <trkpt lat="59.4238149282" lon="17.8300339635">
        <ele>24.4</ele>
        <time>2011-10-25T18:52:38Z</time>
      </trkpt>
      <trkpt lat="59.423821969" lon="17.8300139308">
        <ele>24.4</ele>
        <time>2011-10-25T18:52:39Z</time>
      </trkpt>
      <trkpt lat="59.4238319434" lon="17.8299979214">
        <ele>24.2</ele>
        <time>2011-10-25T18:52:40Z</time>
      </trkpt>
      <trkpt lat="59.4238359667" lon="17.8299639747">
        <ele>24.2</ele>
        <time>2011-10-25T18:52:41Z</time>
      </trkpt>
      <trkpt lat="59.4238479529" lon="17.8299509827">
        <ele>24.2</ele>
        <time>2011-10-25T18:52:42Z</time>
      </trkpt>
      <trkpt lat="59.4238479529" lon="17.8299509827">
        <ele>24.2</ele>
        <time>2011-10-25T18:52:43Z</time>
      </trkpt>
      <trkpt lat="59.4238479529" lon="17.8299509827">
        <ele>24.2</ele>
        <time>2011-10-25T18:52:44Z</time>
      </trkpt>
      <trkpt lat="59.4238829892" lon="17.8299629688">
        <ele>24.2</ele>
        <time>2011-10-25T18:52:45Z</time>
      </trkpt>
      <trkpt lat="59.4238929637" lon="17.8299639747">
        <ele>24.2</ele>
        <time>2011-10-25T18:52:46Z</time>
      </trkpt>
      <trkpt lat="59.4239019323" lon="17.8299609572">
        <ele>24.2</ele>
        <time>2011-10-25T18:52:47Z</time>
      </trkpt>
      <trkpt lat="59.4239109848" lon="17.829955928">
        <ele>24.2</ele>
        <time>2011-10-25T18:52:48Z</time>
      </trkpt>
      <trkpt lat="59.4239249825" lon="17.8299539164">
        <ele>24.2</ele>
        <time>2011-10-25T18:52:49Z</time>
      </trkpt>
      <trkpt lat="59.4239439256" lon="17.8299549222">
        <ele>24.2</ele>
        <time>2011-10-25T18:52:50Z</time>
      </trkpt>
      <trkpt lat="59.4239579234" lon="17.829955928">
        <ele>24.2</ele>
        <time>2011-10-25T18:52:51Z</time>
      </trkpt>
      <trkpt lat="59.4239669759" lon="17.8299539164">
        <ele>24</ele>
        <time>2011-10-25T18:52:52Z</time>
      </trkpt>
      <trkpt lat="59.4239749387" lon="17.8299519885">
        <ele>24</ele>
        <time>2011-10-25T18:52:53Z</time>
      </trkpt>
      <trkpt lat="59.4239799678" lon="17.8299439419">
        <ele>24</ele>
        <time>2011-10-25T18:52:54Z</time>
      </trkpt>
      <trkpt lat="59.4239879306" lon="17.8299329616">
        <ele>24</ele>
        <time>2011-10-25T18:52:55Z</time>
      </trkpt>
      <trkpt lat="59.4239999168" lon="17.8299169522">
        <ele>24</ele>
        <time>2011-10-25T18:52:56Z</time>
      </trkpt>
      <trkpt lat="59.4240009226" lon="17.829879988">
        <ele>24</ele>
        <time>2011-10-25T18:52:57Z</time>
      </trkpt>
      <trkpt lat="59.4240019284" lon="17.8298479691">
        <ele>24</ele>
        <time>2011-10-25T18:52:58Z</time>
      </trkpt>
      <trkpt lat="59.4240049459" lon="17.8298159502">
        <ele>24</ele>
        <time>2011-10-25T18:52:59Z</time>
      </trkpt>
      <trkpt lat="59.4240039401" lon="17.8297839314">
        <ele>24</ele>
        <time>2011-10-25T18:53:00Z</time>
      </trkpt>
      <trkpt lat="59.4240079634" lon="17.8297509905">
        <ele>24</ele>
        <time>2011-10-25T18:53:01Z</time>
      </trkpt>
      <trkpt lat="59.4240109809" lon="17.8297239169">
        <ele>24</ele>
        <time>2011-10-25T18:53:02Z</time>
      </trkpt>
      <trkpt lat="59.4240149204" lon="17.8296949994">
        <ele>23.8</ele>
        <time>2011-10-25T18:53:03Z</time>
      </trkpt>
      <trkpt lat="59.424016932" lon="17.8296679258">
        <ele>23.8</ele>
        <time>2011-10-25T18:53:04Z</time>
      </trkpt>
      <trkpt lat="59.4240199495" lon="17.82962895">
        <ele>23.8</ele>
        <time>2011-10-25T18:53:05Z</time>
      </trkpt>
      <trkpt lat="59.4240249787" lon="17.8295939974">
        <ele>23.8</ele>
        <time>2011-10-25T18:53:06Z</time>
      </trkpt>
      <trkpt lat="59.4240309298" lon="17.8295579553">
        <ele>23.8</ele>
        <time>2011-10-25T18:53:07Z</time>
      </trkpt>
      <trkpt lat="59.4240339473" lon="17.8295269422">
        <ele>23.8</ele>
        <time>2011-10-25T18:53:08Z</time>
      </trkpt>
      <trkpt lat="59.4240349531" lon="17.8295019642">
        <ele>23.8</ele>
        <time>2011-10-25T18:53:09Z</time>
      </trkpt>
      <trkpt lat="59.4240369648" lon="17.8294729628">
        <ele>23.8</ele>
        <time>2011-10-25T18:53:10Z</time>
      </trkpt>
      <trkpt lat="59.4240389764" lon="17.829445973">
        <ele>23.8</ele>
        <time>2011-10-25T18:53:11Z</time>
      </trkpt>
      <trkpt lat="59.4240429997" lon="17.8294159658">
        <ele>23.8</ele>
        <time>2011-10-25T18:53:12Z</time>
      </trkpt>
      <trkpt lat="59.4240429997" lon="17.8293929994">
        <ele>23.8</ele>
        <time>2011-10-25T18:53:13Z</time>
      </trkpt>
      <trkpt lat="59.4240449276" lon="17.8293559514">
        <ele>23.8</ele>
        <time>2011-10-25T18:53:14Z</time>
      </trkpt>
      <trkpt lat="59.4240489509" lon="17.8293169755">
        <ele>23.6</ele>
        <time>2011-10-25T18:53:15Z</time>
      </trkpt>
      <trkpt lat="59.4240579195" lon="17.82928898">
        <ele>23.6</ele>
        <time>2011-10-25T18:53:16Z</time>
      </trkpt>
      <trkpt lat="59.424066972" lon="17.8292649239">
        <ele>23.8</ele>
        <time>2011-10-25T18:53:17Z</time>
      </trkpt>
      <trkpt lat="59.4240779523" lon="17.8292469867">
        <ele>23.8</ele>
        <time>2011-10-25T18:53:18Z</time>
      </trkpt>
      <trkpt lat="59.4240869209" lon="17.8292209189">
        <ele>23.8</ele>
        <time>2011-10-25T18:53:19Z</time>
      </trkpt>
      <trkpt lat="59.424097985" lon="17.8291959409">
        <ele>23.8</ele>
        <time>2011-10-25T18:53:20Z</time>
      </trkpt>
      <trkpt lat="59.4241069537" lon="17.8291789256">
        <ele>23.8</ele>
        <time>2011-10-25T18:53:21Z</time>
      </trkpt>
      <trkpt lat="59.4241189398" lon="17.8291649278">
        <ele>23.8</ele>
        <time>2011-10-25T18:53:22Z</time>
      </trkpt>
      <trkpt lat="59.4241289981" lon="17.8291529417">
        <ele>23.8</ele>
        <time>2011-10-25T18:53:23Z</time>
      </trkpt>
      <trkpt lat="59.4241409842" lon="17.8291369323">
        <ele>24</ele>
        <time>2011-10-25T18:53:24Z</time>
      </trkpt>
      <trkpt lat="59.4241479412" lon="17.8291239403">
        <ele>24</ele>
        <time>2011-10-25T18:53:25Z</time>
      </trkpt>
      <trkpt lat="59.4241559878" lon="17.8291079309">
        <ele>24</ele>
        <time>2011-10-25T18:53:26Z</time>
      </trkpt>
      <trkpt lat="59.4241659623" lon="17.8290839586">
        <ele>24</ele>
        <time>2011-10-25T18:53:27Z</time>
      </trkpt>
      <trkpt lat="59.4241789542" lon="17.8290619981">
        <ele>24.2</ele>
        <time>2011-10-25T18:53:28Z</time>
      </trkpt>
      <trkpt lat="59.4241889287" lon="17.829043977">
        <ele>24.2</ele>
        <time>2011-10-25T18:53:29Z</time>
      </trkpt>
      <trkpt lat="59.424198987" lon="17.8290269617">
        <ele>24.4</ele>
        <time>2011-10-25T18:53:30Z</time>
      </trkpt>
      <trkpt lat="59.4242109731" lon="17.829006929">
        <ele>24.4</ele>
        <time>2011-10-25T18:53:31Z</time>
      </trkpt>
      <trkpt lat="59.424223965" lon="17.8289809451">
        <ele>24.6</ele>
        <time>2011-10-25T18:53:32Z</time>
      </trkpt>
      <trkpt lat="59.4242399745" lon="17.8289529495">
        <ele>24.6</ele>
        <time>2011-10-25T18:53:33Z</time>
      </trkpt>
      <trkpt lat="59.4242559839" lon="17.8289309889">
        <ele>24.6</ele>
        <time>2011-10-25T18:53:34Z</time>
      </trkpt>
      <trkpt lat="59.4242709875" lon="17.8289199248">
        <ele>24.8</ele>
        <time>2011-10-25T18:53:35Z</time>
      </trkpt>
      <trkpt lat="59.4242829736" lon="17.828911962">
        <ele>24.8</ele>
        <time>2011-10-25T18:53:36Z</time>
      </trkpt>
      <trkpt lat="59.4242929481" lon="17.8289089445">
        <ele>24.8</ele>
        <time>2011-10-25T18:53:37Z</time>
      </trkpt>
      <trkpt lat="59.4243039284" lon="17.8289039992">
        <ele>24.8</ele>
        <time>2011-10-25T18:53:38Z</time>
      </trkpt>
      <trkpt lat="59.4243159983" lon="17.8288979642">
        <ele>25</ele>
        <time>2011-10-25T18:53:39Z</time>
      </trkpt>
      <trkpt lat="59.4243259728" lon="17.8288939409">
        <ele>25</ele>
        <time>2011-10-25T18:53:40Z</time>
      </trkpt>
      <trkpt lat="59.4243369531" lon="17.8288849723">
        <ele>25</ele>
        <time>2011-10-25T18:53:41Z</time>
      </trkpt>
      <trkpt lat="59.4243489392" lon="17.8288729861">
        <ele>25</ele>
        <time>2011-10-25T18:53:42Z</time>
      </trkpt>
      <trkpt lat="59.424362937" lon="17.8288639337">
        <ele>25</ele>
        <time>2011-10-25T18:53:43Z</time>
      </trkpt>
      <trkpt lat="59.4243789464" lon="17.8288509417">
        <ele>25.2</ele>
        <time>2011-10-25T18:53:44Z</time>
      </trkpt>
      <trkpt lat="59.4243959617" lon="17.8288419731">
        <ele>25.2</ele>
        <time>2011-10-25T18:53:45Z</time>
      </trkpt>
      <trkpt lat="59.4244089536" lon="17.828836944">
        <ele>25.2</ele>
        <time>2011-10-25T18:53:46Z</time>
      </trkpt>
      <trkpt lat="59.4244189281" lon="17.8288379498">
        <ele>25.2</ele>
        <time>2011-10-25T18:53:47Z</time>
      </trkpt>
      <trkpt lat="59.4244319201" lon="17.8288399614">
        <ele>25.2</ele>
        <time>2011-10-25T18:53:48Z</time>
      </trkpt>
      <trkpt lat="59.4244429842" lon="17.8288389556">
        <ele>25.2</ele>
        <time>2011-10-25T18:53:49Z</time>
      </trkpt>
      <trkpt lat="59.4244559761" lon="17.8288379498">
        <ele>25.4</ele>
        <time>2011-10-25T18:53:50Z</time>
      </trkpt>
      <trkpt lat="59.4244669564" lon="17.828836944">
        <ele>25.4</ele>
        <time>2011-10-25T18:53:51Z</time>
      </trkpt>
      <trkpt lat="59.4244799484" lon="17.8288349323">
        <ele>25.4</ele>
        <time>2011-10-25T18:53:52Z</time>
      </trkpt>
      <trkpt lat="59.4244959578" lon="17.8288309928">
        <ele>25.4</ele>
        <time>2011-10-25T18:53:53Z</time>
      </trkpt>
      <trkpt lat="59.4245119672" lon="17.8288329206">
        <ele>25.4</ele>
        <time>2011-10-25T18:53:54Z</time>
      </trkpt>
      <trkpt lat="59.4245249592" lon="17.8288329206">
        <ele>25.4</ele>
        <time>2011-10-25T18:53:55Z</time>
      </trkpt>
      <trkpt lat="59.4245369453" lon="17.8288339265">
        <ele>25.4</ele>
        <time>2011-10-25T18:53:56Z</time>
      </trkpt>
      <trkpt lat="59.4245469198" lon="17.8288329206">
        <ele>25.6</ele>
        <time>2011-10-25T18:53:57Z</time>
      </trkpt>
      <trkpt lat="59.4245579839" lon="17.8288339265">
        <ele>25.6</ele>
        <time>2011-10-25T18:53:58Z</time>
      </trkpt>
      <trkpt lat="59.4245709758" lon="17.8288309928">
        <ele>25.6</ele>
        <time>2011-10-25T18:53:59Z</time>
      </trkpt>
      <trkpt lat="59.4245869853" lon="17.828836944">
        <ele>25.6</ele>
        <time>2011-10-25T18:54:00Z</time>
      </trkpt>
      <trkpt lat="59.4245989714" lon="17.8288419731">
        <ele>25.6</ele>
        <time>2011-10-25T18:54:01Z</time>
      </trkpt>
      <trkpt lat="59.4246129692" lon="17.8288459964">
        <ele>25.6</ele>
        <time>2011-10-25T18:54:02Z</time>
      </trkpt>
      <trkpt lat="59.4246279728" lon="17.8288499359">
        <ele>25.6</ele>
        <time>2011-10-25T18:54:03Z</time>
      </trkpt>
      <trkpt lat="59.4246409647" lon="17.8288489301">
        <ele>25.8</ele>
        <time>2011-10-25T18:54:04Z</time>
      </trkpt>
      <trkpt lat="59.424651945" lon="17.8288529534">
        <ele>25.8</ele>
        <time>2011-10-25T18:54:05Z</time>
      </trkpt>
      <trkpt lat="59.424664937" lon="17.8288489301">
        <ele>25.8</ele>
        <time>2011-10-25T18:54:06Z</time>
      </trkpt>
      <trkpt lat="59.4246809464" lon="17.8288469184">
        <ele>25.8</ele>
        <time>2011-10-25T18:54:07Z</time>
      </trkpt>
      <trkpt lat="59.4246989675" lon="17.8288499359">
        <ele>25.8</ele>
        <time>2011-10-25T18:54:08Z</time>
      </trkpt>
      <trkpt lat="59.4247149769" lon="17.8288539592">
        <ele>25.8</ele>
        <time>2011-10-25T18:54:09Z</time>
      </trkpt>
      <trkpt lat="59.4247289747" lon="17.828854965">
        <ele>26</ele>
        <time>2011-10-25T18:54:10Z</time>
      </trkpt>
      <trkpt lat="59.42474599" lon="17.8288559709">
        <ele>26</ele>
        <time>2011-10-25T18:54:11Z</time>
      </trkpt>
      <trkpt lat="59.4247599877" lon="17.8288579825">
        <ele>26</ele>
        <time>2011-10-25T18:54:12Z</time>
      </trkpt>
      <trkpt lat="59.4247749913" lon="17.8288589884">
        <ele>26</ele>
        <time>2011-10-25T18:54:13Z</time>
      </trkpt>
      <trkpt lat="59.424789995" lon="17.8288609162">
        <ele>26</ele>
        <time>2011-10-25T18:54:14Z</time>
      </trkpt>
      <trkpt lat="59.4248059206" lon="17.8288669512">
        <ele>26</ele>
        <time>2011-10-25T18:54:15Z</time>
      </trkpt>
      <trkpt lat="59.4248179905" lon="17.8288649395">
        <ele>26.2</ele>
        <time>2011-10-25T18:54:16Z</time>
      </trkpt>
      <trkpt lat="59.4248309825" lon="17.8288579825">
        <ele>26.2</ele>
        <time>2011-10-25T18:54:17Z</time>
      </trkpt>
      <trkpt lat="59.4248469919" lon="17.8288479242">
        <ele>26.2</ele>
        <time>2011-10-25T18:54:18Z</time>
      </trkpt>
      <trkpt lat="59.4248629175" lon="17.8288349323">
        <ele>26.2</ele>
        <time>2011-10-25T18:54:19Z</time>
      </trkpt>
      <trkpt lat="59.4248769991" lon="17.8288209345">
        <ele>26.2</ele>
        <time>2011-10-25T18:54:20Z</time>
      </trkpt>
      <trkpt lat="59.4248939306" lon="17.8288009856">
        <ele>26.2</ele>
        <time>2011-10-25T18:54:21Z</time>
      </trkpt>
      <trkpt lat="59.4249049947" lon="17.8287849762">
        <ele>26.2</ele>
        <time>2011-10-25T18:54:22Z</time>
      </trkpt>
      <trkpt lat="59.4249189924" lon="17.8287699725">
        <ele>26.2</ele>
        <time>2011-10-25T18:54:23Z</time>
      </trkpt>
      <trkpt lat="59.4249339961" lon="17.8287499398">
        <ele>26.2</ele>
        <time>2011-10-25T18:54:24Z</time>
      </trkpt>
      <trkpt lat="59.424946988" lon="17.8287179209">
        <ele>26.2</ele>
        <time>2011-10-25T18:54:25Z</time>
      </trkpt>
      <trkpt lat="59.424953945" lon="17.8286949545">
        <ele>26.2</ele>
        <time>2011-10-25T18:54:26Z</time>
      </trkpt>
      <trkpt lat="59.4249579683" lon="17.8286659531">
        <ele>26.2</ele>
        <time>2011-10-25T18:54:27Z</time>
      </trkpt>
      <trkpt lat="59.4249639194" lon="17.8286359459">
        <ele>26.2</ele>
        <time>2011-10-25T18:54:28Z</time>
      </trkpt>
      <trkpt lat="59.4249669369" lon="17.8286129795">
        <ele>26.2</ele>
        <time>2011-10-25T18:54:29Z</time>
      </trkpt>
      <trkpt lat="59.4249679428" lon="17.8285849839">
        <ele>26.2</ele>
        <time>2011-10-25T18:54:30Z</time>
      </trkpt>
      <trkpt lat="59.4249719661" lon="17.8285539709">
        <ele>26.2</ele>
        <time>2011-10-25T18:54:31Z</time>
      </trkpt>
      <trkpt lat="59.4249739777" lon="17.8285189345">
        <ele>26.2</ele>
        <time>2011-10-25T18:54:32Z</time>
      </trkpt>
      <trkpt lat="59.4249779172" lon="17.8284809645">
        <ele>26</ele>
        <time>2011-10-25T18:54:33Z</time>
      </trkpt>
      <trkpt lat="59.4249789231" lon="17.828446934">
        <ele>26</ele>
        <time>2011-10-25T18:54:34Z</time>
      </trkpt>
      <trkpt lat="59.4249789231" lon="17.8284169268">
        <ele>26</ele>
        <time>2011-10-25T18:54:35Z</time>
      </trkpt>
      <trkpt lat="59.4249799289" lon="17.8283879254">
        <ele>26</ele>
        <time>2011-10-25T18:54:36Z</time>
      </trkpt>
      <trkpt lat="59.4249819405" lon="17.8283569962">
        <ele>26</ele>
        <time>2011-10-25T18:54:37Z</time>
      </trkpt>
      <trkpt lat="59.424984958" lon="17.8283299226">
        <ele>25.8</ele>
        <time>2011-10-25T18:54:38Z</time>
      </trkpt>
      <trkpt lat="59.4249869697" lon="17.8283069562">
        <ele>25.8</ele>
        <time>2011-10-25T18:54:39Z</time>
      </trkpt>
      <trkpt lat="59.4249869697" lon="17.8282939643">
        <ele>25.8</ele>
        <time>2011-10-25T18:54:40Z</time>
      </trkpt>
      <trkpt lat="59.4249879755" lon="17.8282709979">
        <ele>25.8</ele>
        <time>2011-10-25T18:54:41Z</time>
      </trkpt>
      <trkpt lat="59.4249899872" lon="17.8282479476">
        <ele>25.8</ele>
        <time>2011-10-25T18:54:42Z</time>
      </trkpt>
      <trkpt lat="59.4249899872" lon="17.8282199521">
        <ele>25.8</ele>
        <time>2011-10-25T18:54:43Z</time>
      </trkpt>
      <trkpt lat="59.4249929208" lon="17.8281829879">
        <ele>25.8</ele>
        <time>2011-10-25T18:54:44Z</time>
      </trkpt>
      <trkpt lat="59.4249959383" lon="17.8281539865">
        <ele>25.6</ele>
        <time>2011-10-25T18:54:45Z</time>
      </trkpt>
      <trkpt lat="59.4249989558" lon="17.8281289246">
        <ele>25.6</ele>
        <time>2011-10-25T18:54:46Z</time>
      </trkpt>
      <trkpt lat="59.4250019733" lon="17.8281119931">
        <ele>25.6</ele>
        <time>2011-10-25T18:54:47Z</time>
      </trkpt>
      <trkpt lat="59.4250049908" lon="17.8280939721">
        <ele>25.6</ele>
        <time>2011-10-25T18:54:48Z</time>
      </trkpt>
      <trkpt lat="59.4250069186" lon="17.8280679882">
        <ele>25.6</ele>
        <time>2011-10-25T18:54:49Z</time>
      </trkpt>
      <trkpt lat="59.4250079244" lon="17.8280359693">
        <ele>25.6</ele>
        <time>2011-10-25T18:54:50Z</time>
      </trkpt>
      <trkpt lat="59.4250079244" lon="17.8280069679">
        <ele>25.6</ele>
        <time>2011-10-25T18:54:51Z</time>
      </trkpt>
      <trkpt lat="59.4250069186" lon="17.8279739432">
        <ele>25.6</ele>
        <time>2011-10-25T18:54:52Z</time>
      </trkpt>
      <trkpt lat="59.4250099361" lon="17.8279329557">
        <ele>25.6</ele>
        <time>2011-10-25T18:54:53Z</time>
      </trkpt>
      <trkpt lat="59.4250149652" lon="17.8278959915">
        <ele>25.6</ele>
        <time>2011-10-25T18:54:54Z</time>
      </trkpt>
      <trkpt lat="59.4250199944" lon="17.8278659843">
        <ele>25.6</ele>
        <time>2011-10-25T18:54:55Z</time>
      </trkpt>
      <trkpt lat="59.4250269514" lon="17.8278369829">
        <ele>25.6</ele>
        <time>2011-10-25T18:54:56Z</time>
      </trkpt>
      <trkpt lat="59.4250319805" lon="17.8278169502">
        <ele>25.6</ele>
        <time>2011-10-25T18:54:57Z</time>
      </trkpt>
      <trkpt lat="59.4250369258" lon="17.8277809918">
        <ele>25.8</ele>
        <time>2011-10-25T18:54:58Z</time>
      </trkpt>
      <trkpt lat="59.425041955" lon="17.8277539182">
        <ele>25.8</ele>
        <time>2011-10-25T18:54:59Z</time>
      </trkpt>
      <trkpt lat="59.4250469841" lon="17.8277319577">
        <ele>25.8</ele>
        <time>2011-10-25T18:55:00Z</time>
      </trkpt>
      <trkpt lat="59.4250509236" lon="17.8277039621">
        <ele>25.8</ele>
        <time>2011-10-25T18:55:01Z</time>
      </trkpt>
      <trkpt lat="59.4250569586" lon="17.8276699316">
        <ele>25.8</ele>
        <time>2011-10-25T18:55:02Z</time>
      </trkpt>
      <trkpt lat="59.4250619877" lon="17.8276329674">
        <ele>25.8</ele>
        <time>2011-10-25T18:55:03Z</time>
      </trkpt>
      <trkpt lat="59.4250659272" lon="17.8275949974">
        <ele>25.8</ele>
        <time>2011-10-25T18:55:04Z</time>
      </trkpt>
      <trkpt lat="59.4250709563" lon="17.8275649901">
        <ele>25.8</ele>
        <time>2011-10-25T18:55:05Z</time>
      </trkpt>
      <trkpt lat="59.4250719622" lon="17.8275329713">
        <ele>25.8</ele>
        <time>2011-10-25T18:55:06Z</time>
      </trkpt>
      <trkpt lat="59.4250719622" lon="17.8275129385">
        <ele>25.8</ele>
        <time>2011-10-25T18:55:07Z</time>
      </trkpt>
      <trkpt lat="59.4250719622" lon="17.8274929896">
        <ele>25.8</ele>
        <time>2011-10-25T18:55:08Z</time>
      </trkpt>
      <trkpt lat="59.4250709563" lon="17.8274769802">
        <ele>25.8</ele>
        <time>2011-10-25T18:55:09Z</time>
      </trkpt>
      <trkpt lat="59.4250679389" lon="17.8274689335">
        <ele>25.8</ele>
        <time>2011-10-25T18:55:10Z</time>
      </trkpt>
      <trkpt lat="59.4250689447" lon="17.827440938">
        <ele>25.8</ele>
        <time>2011-10-25T18:55:11Z</time>
      </trkpt>
      <trkpt lat="59.4250719622" lon="17.8274119366">
        <ele>25.8</ele>
        <time>2011-10-25T18:55:12Z</time>
      </trkpt>
      <trkpt lat="59.4250749797" lon="17.8273859527">
        <ele>25.8</ele>
        <time>2011-10-25T18:55:13Z</time>
      </trkpt>
      <trkpt lat="59.4250769913" lon="17.8273489885">
        <ele>25.8</ele>
        <time>2011-10-25T18:55:14Z</time>
      </trkpt>
      <trkpt lat="59.4250779971" lon="17.827301966">
        <ele>25.8</ele>
        <time>2011-10-25T18:55:15Z</time>
      </trkpt>
      <trkpt lat="59.425079925" lon="17.827276988">
        <ele>25.8</ele>
        <time>2011-10-25T18:55:16Z</time>
      </trkpt>
      <trkpt lat="59.4250789192" lon="17.8272479866">
        <ele>25.8</ele>
        <time>2011-10-25T18:55:17Z</time>
      </trkpt>
      <trkpt lat="59.4250789192" lon="17.8272239305">
        <ele>25.8</ele>
        <time>2011-10-25T18:55:18Z</time>
      </trkpt>
      <trkpt lat="59.4250789192" lon="17.8271949291">
        <ele>25.8</ele>
        <time>2011-10-25T18:55:19Z</time>
      </trkpt>
      <trkpt lat="59.425079925" lon="17.8271559533">
        <ele>25.8</ele>
        <time>2011-10-25T18:55:20Z</time>
      </trkpt>
      <trkpt lat="59.425079925" lon="17.8271209169">
        <ele>25.8</ele>
        <time>2011-10-25T18:55:21Z</time>
      </trkpt>
      <trkpt lat="59.4250809308" lon="17.8270819411">
        <ele>25.8</ele>
        <time>2011-10-25T18:55:22Z</time>
      </trkpt>
      <trkpt lat="59.4250819366" lon="17.8270399477">
        <ele>25.8</ele>
        <time>2011-10-25T18:55:23Z</time>
      </trkpt>
      <trkpt lat="59.4250839483" lon="17.8270039894">
        <ele>25.8</ele>
        <time>2011-10-25T18:55:24Z</time>
      </trkpt>
      <trkpt lat="59.42508596" lon="17.8269809391">
        <ele>25.8</ele>
        <time>2011-10-25T18:55:25Z</time>
      </trkpt>
      <trkpt lat="59.4250879716" lon="17.8269569669">
        <ele>25.8</ele>
        <time>2011-10-25T18:55:26Z</time>
      </trkpt>
      <trkpt lat="59.4250879716" lon="17.8269339167">
        <ele>25.8</ele>
        <time>2011-10-25T18:55:27Z</time>
      </trkpt>
      <trkpt lat="59.4250869658" lon="17.8269259539">
        <ele>25.8</ele>
        <time>2011-10-25T18:55:28Z</time>
      </trkpt>
      <trkpt lat="59.4250869658" lon="17.8268979583">
        <ele>25.8</ele>
        <time>2011-10-25T18:55:29Z</time>
      </trkpt>
      <trkpt lat="59.4250869658" lon="17.8268639278">
        <ele>25.8</ele>
        <time>2011-10-25T18:55:30Z</time>
      </trkpt>
      <trkpt lat="59.4250879716" lon="17.8268329985">
        <ele>25.8</ele>
        <time>2011-10-25T18:55:31Z</time>
      </trkpt>
      <trkpt lat="59.4250889774" lon="17.8268039972">
        <ele>25.8</ele>
        <time>2011-10-25T18:55:32Z</time>
      </trkpt>
      <trkpt lat="59.4250909891" lon="17.8267689608">
        <ele>25.8</ele>
        <time>2011-10-25T18:55:33Z</time>
      </trkpt>
      <trkpt lat="59.4250919949" lon="17.8267449886">
        <ele>25.8</ele>
        <time>2011-10-25T18:55:34Z</time>
      </trkpt>
      <trkpt lat="59.4250959344" lon="17.8267209325">
        <ele>25.8</ele>
        <time>2011-10-25T18:55:35Z</time>
      </trkpt>
      <trkpt lat="59.4250989519" lon="17.8266879916">
        <ele>25.8</ele>
        <time>2011-10-25T18:55:36Z</time>
      </trkpt>
      <trkpt lat="59.4251009636" lon="17.8266509436">
        <ele>25.8</ele>
        <time>2011-10-25T18:55:37Z</time>
      </trkpt>
      <trkpt lat="59.425103981" lon="17.8266209364">
        <ele>25.8</ele>
        <time>2011-10-25T18:55:38Z</time>
      </trkpt>
      <trkpt lat="59.4251089264" lon="17.8265899234">
        <ele>26</ele>
        <time>2011-10-25T18:55:39Z</time>
      </trkpt>
      <trkpt lat="59.4251129497" lon="17.8265649453">
        <ele>26</ele>
        <time>2011-10-25T18:55:40Z</time>
      </trkpt>
      <trkpt lat="59.4251209963" lon="17.8265519533">
        <ele>26</ele>
        <time>2011-10-25T18:55:41Z</time>
      </trkpt>
      <trkpt lat="59.4251299649" lon="17.8265349381">
        <ele>26.2</ele>
        <time>2011-10-25T18:55:42Z</time>
      </trkpt>
      <trkpt lat="59.4251379278" lon="17.8265139833">
        <ele>26.2</ele>
        <time>2011-10-25T18:55:43Z</time>
      </trkpt>
      <trkpt lat="59.4251469802" lon="17.8264869936">
        <ele>26.4</ele>
        <time>2011-10-25T18:55:44Z</time>
      </trkpt>
      <trkpt lat="59.4251559488" lon="17.8264539689">
        <ele>26.4</ele>
        <time>2011-10-25T18:55:45Z</time>
      </trkpt>
      <trkpt lat="59.4251619838" lon="17.8264239617">
        <ele>26.4</ele>
        <time>2011-10-25T18:55:46Z</time>
      </trkpt>
      <trkpt lat="59.425167935" lon="17.8264009953">
        <ele>26.6</ele>
        <time>2011-10-25T18:55:47Z</time>
      </trkpt>
      <trkpt lat="59.4251689408" lon="17.8263769392">
        <ele>26.6</ele>
        <time>2011-10-25T18:55:48Z</time>
      </trkpt>
      <trkpt lat="59.425167935" lon="17.8263519611">
        <ele>26.6</ele>
        <time>2011-10-25T18:55:49Z</time>
      </trkpt>
      <trkpt lat="59.425167935" lon="17.8263259772">
        <ele>26.6</ele>
        <time>2011-10-25T18:55:50Z</time>
      </trkpt>
      <trkpt lat="59.4251709525" lon="17.826289935">
        <ele>26.6</ele>
        <time>2011-10-25T18:55:51Z</time>
      </trkpt>
      <trkpt lat="59.4251779933" lon="17.8262499534">
        <ele>26.6</ele>
        <time>2011-10-25T18:55:52Z</time>
      </trkpt>
      <trkpt lat="59.4251839444" lon="17.8262159228">
        <ele>26.6</ele>
        <time>2011-10-25T18:55:53Z</time>
      </trkpt>
      <trkpt lat="59.4251889735" lon="17.8261929564">
        <ele>26.8</ele>
        <time>2011-10-25T18:55:54Z</time>
      </trkpt>
      <trkpt lat="59.4251909852" lon="17.8261679783">
        <ele>26.8</ele>
        <time>2011-10-25T18:55:55Z</time>
      </trkpt>
      <trkpt lat="59.4251939189" lon="17.826138977">
        <ele>26.8</ele>
        <time>2011-10-25T18:55:56Z</time>
      </trkpt>
      <trkpt lat="59.425198948" lon="17.8261069581">
        <ele>26.8</ele>
        <time>2011-10-25T18:55:57Z</time>
      </trkpt>
      <trkpt lat="59.4252039772" lon="17.8260809742">
        <ele>26.8</ele>
        <time>2011-10-25T18:55:58Z</time>
      </trkpt>
      <trkpt lat="59.4252039772" lon="17.826057924">
        <ele>26.8</ele>
        <time>2011-10-25T18:55:59Z</time>
      </trkpt>
      <trkpt lat="59.4252039772" lon="17.8260369692">
        <ele>26.8</ele>
        <time>2011-10-25T18:56:00Z</time>
      </trkpt>
      <trkpt lat="59.4252029713" lon="17.8259999212">
        <ele>26.8</ele>
        <time>2011-10-25T18:56:01Z</time>
      </trkpt>
      <trkpt lat="59.425198948" lon="17.8259639628">
        <ele>26.8</ele>
        <time>2011-10-25T18:56:02Z</time>
      </trkpt>
      <trkpt lat="59.4251939189" lon="17.8259279206">
        <ele>26.8</ele>
        <time>2011-10-25T18:56:03Z</time>
      </trkpt>
      <trkpt lat="59.4251899794" lon="17.8258829936">
        <ele>26.8</ele>
        <time>2011-10-25T18:56:04Z</time>
      </trkpt>
      <trkpt lat="59.4251869619" lon="17.8258429281">
        <ele>26.6</ele>
        <time>2011-10-25T18:56:05Z</time>
      </trkpt>
      <trkpt lat="59.4251839444" lon="17.8258109931">
        <ele>26.6</ele>
        <time>2011-10-25T18:56:06Z</time>
      </trkpt>
      <trkpt lat="59.4251809269" lon="17.8257789742">
        <ele>26.6</ele>
        <time>2011-10-25T18:56:07Z</time>
      </trkpt>
      <trkpt lat="59.4251759816" lon="17.8257469554">
        <ele>26.6</ele>
        <time>2011-10-25T18:56:08Z</time>
      </trkpt>
      <trkpt lat="59.4251739699" lon="17.825717954">
        <ele>26.4</ele>
        <time>2011-10-25T18:56:09Z</time>
      </trkpt>
      <trkpt lat="59.4251739699" lon="17.8256889526">
        <ele>26.4</ele>
        <time>2011-10-25T18:56:10Z</time>
      </trkpt>
      <trkpt lat="59.4251769874" lon="17.8256579395">
        <ele>26.4</ele>
        <time>2011-10-25T18:56:11Z</time>
      </trkpt>
      <trkpt lat="59.4251819327" lon="17.8256249987">
        <ele>26.4</ele>
        <time>2011-10-25T18:56:12Z</time>
      </trkpt>
      <trkpt lat="59.4251879677" lon="17.8255969193">
        <ele>26.6</ele>
        <time>2011-10-25T18:56:13Z</time>
      </trkpt>
      <trkpt lat="59.4251969364" lon="17.8255709354">
        <ele>26.6</ele>
        <time>2011-10-25T18:56:14Z</time>
      </trkpt>
      <trkpt lat="59.4252019655" lon="17.8255559318">
        <ele>26.6</ele>
        <time>2011-10-25T18:56:15Z</time>
      </trkpt>
      <trkpt lat="59.4252099283" lon="17.8255319595">
        <ele>26.6</ele>
        <time>2011-10-25T18:56:16Z</time>
      </trkpt>
      <trkpt lat="59.4252139516" lon="17.825510921">
        <ele>26.6</ele>
        <time>2011-10-25T18:56:17Z</time>
      </trkpt>
      <trkpt lat="59.4252219982" lon="17.8254769742">
        <ele>26.6</ele>
        <time>2011-10-25T18:56:18Z</time>
      </trkpt>
      <trkpt lat="59.4252309669" lon="17.8254509903">
        <ele>26.8</ele>
        <time>2011-10-25T18:56:19Z</time>
      </trkpt>
      <trkpt lat="59.4252379239" lon="17.8254339751">
        <ele>26.8</ele>
        <time>2011-10-25T18:56:20Z</time>
      </trkpt>
      <trkpt lat="59.4252459705" lon="17.825421989">
        <ele>26.8</ele>
        <time>2011-10-25T18:56:21Z</time>
      </trkpt>
      <trkpt lat="59.4252589624" lon="17.825402962">
        <ele>27</ele>
        <time>2011-10-25T18:56:22Z</time>
      </trkpt>
      <trkpt lat="59.4252729602" lon="17.8253879584">
        <ele>27</ele>
        <time>2011-10-25T18:56:23Z</time>
      </trkpt>
      <trkpt lat="59.425286958" lon="17.8253689315">
        <ele>27</ele>
        <time>2011-10-25T18:56:24Z</time>
      </trkpt>
      <trkpt lat="59.4252969325" lon="17.8253509942">
        <ele>27.2</ele>
        <time>2011-10-25T18:56:25Z</time>
      </trkpt>
      <trkpt lat="59.4253059849" lon="17.825340936">
        <ele>27.2</ele>
        <time>2011-10-25T18:56:26Z</time>
      </trkpt>
      <trkpt lat="59.4253169652" lon="17.825327944">
        <ele>27.2</ele>
        <time>2011-10-25T18:56:27Z</time>
      </trkpt>
      <trkpt lat="59.4253279455" lon="17.8253179695">
        <ele>27.4</ele>
        <time>2011-10-25T18:56:28Z</time>
      </trkpt>
      <trkpt lat="59.425336998" lon="17.8253039718">
        <ele>27.4</ele>
        <time>2011-10-25T18:56:29Z</time>
      </trkpt>
      <trkpt lat="59.4253499899" lon="17.8252849448">
        <ele>27.4</ele>
        <time>2011-10-25T18:56:30Z</time>
      </trkpt>
      <trkpt lat="59.4253629819" lon="17.8252679296">
        <ele>27.4</ele>
        <time>2011-10-25T18:56:31Z</time>
      </trkpt>
      <trkpt lat="59.4253719505" lon="17.8252549376">
        <ele>27.6</ele>
        <time>2011-10-25T18:56:32Z</time>
      </trkpt>
      <trkpt lat="59.4253799971" lon="17.8252439573">
        <ele>27.6</ele>
        <time>2011-10-25T18:56:33Z</time>
      </trkpt>
      <trkpt lat="59.4253799971" lon="17.8252439573">
        <ele>27.6</ele>
        <time>2011-10-25T18:56:34Z</time>
      </trkpt>
      <trkpt lat="59.4253799971" lon="17.8252439573">
        <ele>27.6</ele>
        <time>2011-10-25T18:56:35Z</time>
      </trkpt>
      <trkpt lat="59.4253799971" lon="17.8252439573">
        <ele>27.6</ele>
        <time>2011-10-25T18:56:36Z</time>
      </trkpt>
      <trkpt lat="59.4253799971" lon="17.8252439573">
        <ele>27.6</ele>
        <time>2011-10-25T18:56:37Z</time>
      </trkpt>
      <trkpt lat="59.4253799971" lon="17.8252439573">
        <ele>27.6</ele>
        <time>2011-10-25T18:56:38Z</time>
      </trkpt>
      <trkpt lat="59.4253799971" lon="17.8252439573">
        <ele>27.6</ele>
        <time>2011-10-25T18:56:39Z</time>
      </trkpt>
      <trkpt lat="59.4253799971" lon="17.8252439573">
        <ele>27.6</ele>
        <time>2011-10-25T18:56:40Z</time>
      </trkpt>
      <trkpt lat="59.4253869541" lon="17.8252369165">
        <ele>27.6</ele>
        <time>2011-10-25T18:56:41Z</time>
      </trkpt>
      <trkpt lat="59.4254019577" lon="17.8252219968">
        <ele>27.6</ele>
        <time>2011-10-25T18:56:42Z</time>
      </trkpt>
      <trkpt lat="59.4254149497" lon="17.825207999">
        <ele>27.8</ele>
        <time>2011-10-25T18:56:43Z</time>
      </trkpt>
      <trkpt lat="59.4254269358" lon="17.8251949232">
        <ele>27.8</ele>
        <time>2011-10-25T18:56:44Z</time>
      </trkpt>
      <trkpt lat="59.4254279416" lon="17.8251839429">
        <ele>27.8</ele>
        <time>2011-10-25T18:56:45Z</time>
      </trkpt>
      <trkpt lat="59.4254399277" lon="17.8251599707">
        <ele>27.8</ele>
        <time>2011-10-25T18:56:46Z</time>
      </trkpt>
      <trkpt lat="59.425449986" lon="17.8251379263">
        <ele>27.8</ele>
        <time>2011-10-25T18:56:47Z</time>
      </trkpt>
      <trkpt lat="59.425456943" lon="17.8251159657">
        <ele>27.8</ele>
        <time>2011-10-25T18:56:48Z</time>
      </trkpt>
      <trkpt lat="59.4254699349" lon="17.8250909876">
        <ele>28</ele>
        <time>2011-10-25T18:56:49Z</time>
      </trkpt>
      <trkpt lat="59.4254769757" lon="17.8250739723">
        <ele>28</ele>
        <time>2011-10-25T18:56:50Z</time>
      </trkpt>
      <trkpt lat="59.425487956" lon="17.8250439651">
        <ele>28</ele>
        <time>2011-10-25T18:56:51Z</time>
      </trkpt>
      <trkpt lat="59.4255029596" lon="17.8250169754">
        <ele>28</ele>
        <time>2011-10-25T18:56:52Z</time>
      </trkpt>
      <trkpt lat="59.4255209807" lon="17.8249989543">
        <ele>28</ele>
        <time>2011-10-25T18:56:53Z</time>
      </trkpt>
      <trkpt lat="59.4255369902" lon="17.8249779996">
        <ele>28.2</ele>
        <time>2011-10-25T18:56:54Z</time>
      </trkpt>
      <trkpt lat="59.4255419355" lon="17.8249669354">
        <ele>28.2</ele>
        <time>2011-10-25T18:56:55Z</time>
      </trkpt>
      <trkpt lat="59.4255519938" lon="17.8249389399">
        <ele>28.2</ele>
        <time>2011-10-25T18:56:56Z</time>
      </trkpt>
      <trkpt lat="59.4255599566" lon="17.8249139618">
        <ele>28.2</ele>
        <time>2011-10-25T18:56:57Z</time>
      </trkpt>
      <trkpt lat="59.4255619682" lon="17.8248979524">
        <ele>28.2</ele>
        <time>2011-10-25T18:56:58Z</time>
      </trkpt>
      <trkpt lat="59.4255709369" lon="17.8248719685">
        <ele>28.4</ele>
        <time>2011-10-25T18:56:59Z</time>
      </trkpt>
      <trkpt lat="59.4255779777" lon="17.8248539474">
        <ele>28.4</ele>
        <time>2011-10-25T18:57:00Z</time>
      </trkpt>
      <trkpt lat="59.425588958" lon="17.824830981">
        <ele>28.4</ele>
        <time>2011-10-25T18:57:01Z</time>
      </trkpt>
      <trkpt lat="59.4256019499" lon="17.8248029854">
        <ele>28.6</ele>
        <time>2011-10-25T18:57:02Z</time>
      </trkpt>
      <trkpt lat="59.4256149419" lon="17.8247729782">
        <ele>28.6</ele>
        <time>2011-10-25T18:57:03Z</time>
      </trkpt>
      <trkpt lat="59.4256279338" lon="17.824742971">
        <ele>28.6</ele>
        <time>2011-10-25T18:57:04Z</time>
      </trkpt>
      <trkpt lat="59.4256349746" lon="17.8247149754">
        <ele>28.8</ele>
        <time>2011-10-25T18:57:05Z</time>
      </trkpt>
      <trkpt lat="59.4256439433" lon="17.8246909194">
        <ele>28.8</ele>
        <time>2011-10-25T18:57:06Z</time>
      </trkpt>
      <trkpt lat="59.425650984" lon="17.824667953">
        <ele>28.8</ele>
        <time>2011-10-25T18:57:07Z</time>
      </trkpt>
      <trkpt lat="59.4256589469" lon="17.8246419691">
        <ele>28.8</ele>
        <time>2011-10-25T18:57:08Z</time>
      </trkpt>
      <trkpt lat="59.425663976" lon="17.8246179968">
        <ele>28.8</ele>
        <time>2011-10-25T18:57:09Z</time>
      </trkpt>
      <trkpt lat="59.425670933" lon="17.8245979641">
        <ele>29</ele>
        <time>2011-10-25T18:57:10Z</time>
      </trkpt>
      <trkpt lat="59.4256759621" lon="17.8245809488">
        <ele>29</ele>
        <time>2011-10-25T18:57:11Z</time>
      </trkpt>
      <trkpt lat="59.4256859366" lon="17.824559994">
        <ele>29</ele>
        <time>2011-10-25T18:57:12Z</time>
      </trkpt>
      <trkpt lat="59.4256929774" lon="17.8245449904">
        <ele>29</ele>
        <time>2011-10-25T18:57:13Z</time>
      </trkpt>
      <trkpt lat="59.4257009402" lon="17.8245329205">
        <ele>29.2</ele>
        <time>2011-10-25T18:57:14Z</time>
      </trkpt>
      <trkpt lat="59.4257109985" lon="17.8245049249">
        <ele>29.2</ele>
        <time>2011-10-25T18:57:15Z</time>
      </trkpt>
      <trkpt lat="59.4257209729" lon="17.824478941">
        <ele>29.2</ele>
        <time>2011-10-25T18:57:16Z</time>
      </trkpt>
      <trkpt lat="59.4257289357" lon="17.8244669549">
        <ele>29.2</ele>
        <time>2011-10-25T18:57:17Z</time>
      </trkpt>
      <trkpt lat="59.4257359765" lon="17.824453963">
        <ele>29.4</ele>
        <time>2011-10-25T18:57:18Z</time>
      </trkpt>
      <trkpt lat="59.4257439394" lon="17.8244359419">
        <ele>29.4</ele>
        <time>2011-10-25T18:57:19Z</time>
      </trkpt>
      <trkpt lat="59.4257559255" lon="17.8244159929">
        <ele>29.4</ele>
        <time>2011-10-25T18:57:20Z</time>
      </trkpt>
      <trkpt lat="59.4257679954" lon="17.8244019952">
        <ele>29.6</ele>
        <time>2011-10-25T18:57:21Z</time>
      </trkpt>
      <trkpt lat="59.4257799815" lon="17.8243889194">
        <ele>29.6</ele>
        <time>2011-10-25T18:57:22Z</time>
      </trkpt>
      <trkpt lat="59.4257909618" lon="17.8243779391">
        <ele>29.6</ele>
        <time>2011-10-25T18:57:23Z</time>
      </trkpt>
      <trkpt lat="59.4258079771" lon="17.8243619297">
        <ele>29.8</ele>
        <time>2011-10-25T18:57:24Z</time>
      </trkpt>
      <trkpt lat="59.4258259982" lon="17.8243479319">
        <ele>29.8</ele>
        <time>2011-10-25T18:57:25Z</time>
      </trkpt>
      <trkpt lat="59.4258389901" lon="17.8243409749">
        <ele>30</ele>
        <time>2011-10-25T18:57:26Z</time>
      </trkpt>
      <trkpt lat="59.4258519821" lon="17.8243359458">
        <ele>30</ele>
        <time>2011-10-25T18:57:27Z</time>
      </trkpt>
      <trkpt lat="59.4258679915" lon="17.8243259713">
        <ele>30.2</ele>
        <time>2011-10-25T18:57:28Z</time>
      </trkpt>
      <trkpt lat="59.425884923" lon="17.8243169188">
        <ele>30.2</ele>
        <time>2011-10-25T18:57:29Z</time>
      </trkpt>
      <trkpt lat="59.4258969929" lon="17.8243039269">
        <ele>30.2</ele>
        <time>2011-10-25T18:57:30Z</time>
      </trkpt>
      <trkpt lat="59.4259149302" lon="17.8242969699">
        <ele>30.4</ele>
        <time>2011-10-25T18:57:31Z</time>
      </trkpt>
      <trkpt lat="59.4259249885" lon="17.8242869955">
        <ele>30.4</ele>
        <time>2011-10-25T18:57:32Z</time>
      </trkpt>
      <trkpt lat="59.4259389862" lon="17.8242629394">
        <ele>30.6</ele>
        <time>2011-10-25T18:57:33Z</time>
      </trkpt>
      <trkpt lat="59.4259489607" lon="17.824233938">
        <ele>30.6</ele>
        <time>2011-10-25T18:57:34Z</time>
      </trkpt>
      <trkpt lat="59.4259569235" lon="17.8242089599">
        <ele>30.6</ele>
        <time>2011-10-25T18:57:35Z</time>
      </trkpt>
      <trkpt lat="59.425965976" lon="17.8241819702">
        <ele>30.6</ele>
        <time>2011-10-25T18:57:36Z</time>
      </trkpt>
      <trkpt lat="59.4259769563" lon="17.8241529688">
        <ele>30.8</ele>
        <time>2011-10-25T18:57:37Z</time>
      </trkpt>
      <trkpt lat="59.4259929657" lon="17.8241189383">
        <ele>30.8</ele>
        <time>2011-10-25T18:57:38Z</time>
      </trkpt>
      <trkpt lat="59.4260049518" lon="17.8240889311">
        <ele>31</ele>
        <time>2011-10-25T18:57:39Z</time>
      </trkpt>
      <trkpt lat="59.4260189496" lon="17.824056996">
        <ele>31</ele>
        <time>2011-10-25T18:57:40Z</time>
      </trkpt>
      <trkpt lat="59.4260259904" lon="17.8240249772">
        <ele>31</ele>
        <time>2011-10-25T18:57:41Z</time>
      </trkpt>
      <trkpt lat="59.4260279182" lon="17.8240049444">
        <ele>31</ele>
        <time>2011-10-25T18:57:42Z</time>
      </trkpt>
      <trkpt lat="59.4260299299" lon="17.823975943">
        <ele>31</ele>
        <time>2011-10-25T18:57:43Z</time>
      </trkpt>
      <trkpt lat="59.4260289241" lon="17.8239439242">
        <ele>31</ele>
        <time>2011-10-25T18:57:44Z</time>
      </trkpt>
      <trkpt lat="59.4260289241" lon="17.8239129949">
        <ele>31</ele>
        <time>2011-10-25T18:57:45Z</time>
      </trkpt>
      <trkpt lat="59.4260309357" lon="17.8238809761">
        <ele>31</ele>
        <time>2011-10-25T18:57:46Z</time>
      </trkpt>
      <trkpt lat="59.4260329474" lon="17.8238459397">
        <ele>31</ele>
        <time>2011-10-25T18:57:47Z</time>
      </trkpt>
      <trkpt lat="59.4260319415" lon="17.8238209616">
        <ele>31</ele>
        <time>2011-10-25T18:57:48Z</time>
      </trkpt>
      <trkpt lat="59.4260299299" lon="17.8237909544">
        <ele>31</ele>
        <time>2011-10-25T18:57:49Z</time>
      </trkpt>
      <trkpt lat="59.4260319415" lon="17.8237639647">
        <ele>31</ele>
        <time>2011-10-25T18:57:50Z</time>
      </trkpt>
      <trkpt lat="59.4260299299" lon="17.8237389866">
        <ele>31</ele>
        <time>2011-10-25T18:57:51Z</time>
      </trkpt>
      <trkpt lat="59.4260269962" lon="17.8237039503">
        <ele>31</ele>
        <time>2011-10-25T18:57:52Z</time>
      </trkpt>
      <trkpt lat="59.4260249846" lon="17.8236659802">
        <ele>31</ele>
        <time>2011-10-25T18:57:53Z</time>
      </trkpt>
      <trkpt lat="59.4260239787" lon="17.8236419242">
        <ele>30.8</ele>
        <time>2011-10-25T18:57:54Z</time>
      </trkpt>
      <trkpt lat="59.4260219671" lon="17.823611917">
        <ele>30.8</ele>
        <time>2011-10-25T18:57:55Z</time>
      </trkpt>
      <trkpt lat="59.4260219671" lon="17.8235869389">
        <ele>30.8</ele>
        <time>2011-10-25T18:57:56Z</time>
      </trkpt>
      <trkpt lat="59.4260229729" lon="17.8235559259">
        <ele>30.8</ele>
        <time>2011-10-25T18:57:57Z</time>
      </trkpt>
      <trkpt lat="59.4260219671" lon="17.8235279303">
        <ele>30.8</ele>
        <time>2011-10-25T18:57:58Z</time>
      </trkpt>
      <trkpt lat="59.4260249846" lon="17.8235009406">
        <ele>30.8</ele>
        <time>2011-10-25T18:57:59Z</time>
      </trkpt>
      <trkpt lat="59.4260219671" lon="17.8234709334">
        <ele>30.8</ele>
        <time>2011-10-25T18:58:00Z</time>
      </trkpt>
      <trkpt lat="59.4260179438" lon="17.8234379925">
        <ele>30.8</ele>
        <time>2011-10-25T18:58:01Z</time>
      </trkpt>
      <trkpt lat="59.4260149263" lon="17.823403962">
        <ele>30.8</ele>
        <time>2011-10-25T18:58:02Z</time>
      </trkpt>
      <trkpt lat="59.4260129984" lon="17.8233689256">
        <ele>30.8</ele>
        <time>2011-10-25T18:58:03Z</time>
      </trkpt>
      <trkpt lat="59.4260109868" lon="17.8233329672">
        <ele>30.8</ele>
        <time>2011-10-25T18:58:04Z</time>
      </trkpt>
      <trkpt lat="59.4260119926" lon="17.8233039659">
        <ele>30.8</ele>
        <time>2011-10-25T18:58:05Z</time>
      </trkpt>
      <trkpt lat="59.4260159321" lon="17.8232769761">
        <ele>30.8</ele>
        <time>2011-10-25T18:58:06Z</time>
      </trkpt>
      <trkpt lat="59.4260229729" lon="17.8232399281">
        <ele>31</ele>
        <time>2011-10-25T18:58:07Z</time>
      </trkpt>
      <trkpt lat="59.4260299299" lon="17.8232089989">
        <ele>31</ele>
        <time>2011-10-25T18:58:08Z</time>
      </trkpt>
      <trkpt lat="59.426034959" lon="17.8231869545">
        <ele>31.2</ele>
        <time>2011-10-25T18:58:09Z</time>
      </trkpt>
      <trkpt lat="59.426040994" lon="17.8231629822">
        <ele>31.2</ele>
        <time>2011-10-25T18:58:10Z</time>
      </trkpt>
      <trkpt lat="59.4260489568" lon="17.8231379203">
        <ele>31.2</ele>
        <time>2011-10-25T18:58:11Z</time>
      </trkpt>
      <trkpt lat="59.4260529801" lon="17.8231149539">
        <ele>31.4</ele>
        <time>2011-10-25T18:58:12Z</time>
      </trkpt>
      <trkpt lat="59.4260599371" lon="17.8230979387">
        <ele>31.4</ele>
        <time>2011-10-25T18:58:13Z</time>
      </trkpt>
      <trkpt lat="59.4260679837" lon="17.8230709489">
        <ele>31.4</ele>
        <time>2011-10-25T18:58:14Z</time>
      </trkpt>
      <trkpt lat="59.4260729291" lon="17.8230479825">
        <ele>31.6</ele>
        <time>2011-10-25T18:58:15Z</time>
      </trkpt>
      <trkpt lat="59.426078964" lon="17.8230249323">
        <ele>31.6</ele>
        <time>2011-10-25T18:58:16Z</time>
      </trkpt>
      <trkpt lat="59.426085921" lon="17.8230039775">
        <ele>31.6</ele>
        <time>2011-10-25T18:58:17Z</time>
      </trkpt>
      <trkpt lat="59.4260929618" lon="17.822975982">
        <ele>31.8</ele>
        <time>2011-10-25T18:58:18Z</time>
      </trkpt>
      <trkpt lat="59.4261009246" lon="17.8229499981">
        <ele>31.8</ele>
        <time>2011-10-25T18:58:19Z</time>
      </trkpt>
      <trkpt lat="59.4261069596" lon="17.8229239304">
        <ele>31.8</ele>
        <time>2011-10-25T18:58:20Z</time>
      </trkpt>
      <trkpt lat="59.4261129946" lon="17.8228959348">
        <ele>32</ele>
        <time>2011-10-25T18:58:21Z</time>
      </trkpt>
      <trkpt lat="59.4261179399" lon="17.8228689451">
        <ele>32</ele>
        <time>2011-10-25T18:58:22Z</time>
      </trkpt>
      <trkpt lat="59.4261269923" lon="17.8228409495">
        <ele>32</ele>
        <time>2011-10-25T18:58:23Z</time>
      </trkpt>
      <trkpt lat="59.4261339493" lon="17.8228149656">
        <ele>32.2</ele>
        <time>2011-10-25T18:58:24Z</time>
      </trkpt>
      <trkpt lat="59.4261369668" lon="17.8227949329">
        <ele>32.2</ele>
        <time>2011-10-25T18:58:25Z</time>
      </trkpt>
      <trkpt lat="59.4261439238" lon="17.8227719665">
        <ele>32.2</ele>
        <time>2011-10-25T18:58:26Z</time>
      </trkpt>
      <trkpt lat="59.4261519704" lon="17.8227569629">
        <ele>32.2</ele>
        <time>2011-10-25T18:58:27Z</time>
      </trkpt>
      <trkpt lat="59.4261599332" lon="17.8227349184">
        <ele>32.4</ele>
        <time>2011-10-25T18:58:28Z</time>
      </trkpt>
      <trkpt lat="59.4261709973" lon="17.8227109462">
        <ele>32.4</ele>
        <time>2011-10-25T18:58:29Z</time>
      </trkpt>
      <trkpt lat="59.4261829834" lon="17.8226879798">
        <ele>32.4</ele>
        <time>2011-10-25T18:58:30Z</time>
      </trkpt>
      <trkpt lat="59.4261929579" lon="17.8226629179">
        <ele>32.6</ele>
        <time>2011-10-25T18:58:31Z</time>
      </trkpt>
      <trkpt lat="59.4262019265" lon="17.8226399515">
        <ele>32.6</ele>
        <time>2011-10-25T18:58:32Z</time>
      </trkpt>
      <trkpt lat="59.4262149185" lon="17.822605921">
        <ele>32.6</ele>
        <time>2011-10-25T18:58:33Z</time>
      </trkpt>
      <trkpt lat="59.4262249768" lon="17.8225699626">
        <ele>32.8</ele>
        <time>2011-10-25T18:58:34Z</time>
      </trkpt>
      <trkpt lat="59.4262329396" lon="17.8225409612">
        <ele>32.8</ele>
        <time>2011-10-25T18:58:35Z</time>
      </trkpt>
      <trkpt lat="59.4262429979" lon="17.822510954">
        <ele>32.8</ele>
        <time>2011-10-25T18:58:36Z</time>
      </trkpt>
      <trkpt lat="59.4262519665" lon="17.8224909212">
        <ele>33</ele>
        <time>2011-10-25T18:58:37Z</time>
      </trkpt>
      <trkpt lat="59.426261941" lon="17.822466949">
        <ele>33</ele>
        <time>2011-10-25T18:58:38Z</time>
      </trkpt>
      <trkpt lat="59.4262679759" lon="17.8224489279">
        <ele>33</ele>
        <time>2011-10-25T18:58:39Z</time>
      </trkpt>
      <trkpt lat="59.4262769446" lon="17.8224269673">
        <ele>33</ele>
        <time>2011-10-25T18:58:40Z</time>
      </trkpt>
      <trkpt lat="59.4262909424" lon="17.8224089462">
        <ele>33.2</ele>
        <time>2011-10-25T18:58:41Z</time>
      </trkpt>
      <trkpt lat="59.4263049401" lon="17.8223969601">
        <ele>33.2</ele>
        <time>2011-10-25T18:58:42Z</time>
      </trkpt>
      <trkpt lat="59.4263179321" lon="17.8223909251">
        <ele>33.2</ele>
        <time>2011-10-25T18:58:43Z</time>
      </trkpt>
      <trkpt lat="59.4263349473" lon="17.8223799448">
        <ele>33.4</ele>
        <time>2011-10-25T18:58:44Z</time>
      </trkpt>
      <trkpt lat="59.4263479393" lon="17.8223739937">
        <ele>33.4</ele>
        <time>2011-10-25T18:58:45Z</time>
      </trkpt>
      <trkpt lat="59.4263619371" lon="17.8223709762">
        <ele>33.4</ele>
        <time>2011-10-25T18:58:46Z</time>
      </trkpt>
      <trkpt lat="59.4263729174" lon="17.8223669529">
        <ele>33.4</ele>
        <time>2011-10-25T18:58:47Z</time>
      </trkpt>
      <trkpt lat="59.4263859931" lon="17.8223669529">
        <ele>33.4</ele>
        <time>2011-10-25T18:58:48Z</time>
      </trkpt>
      <trkpt lat="59.4263999909" lon="17.8223679587">
        <ele>33.6</ele>
        <time>2011-10-25T18:58:49Z</time>
      </trkpt>
      <trkpt lat="59.4264149945" lon="17.8223609179">
        <ele>33.6</ele>
        <time>2011-10-25T18:58:50Z</time>
      </trkpt>
      <trkpt lat="59.426431926" lon="17.8223559726">
        <ele>33.6</ele>
        <time>2011-10-25T18:58:51Z</time>
      </trkpt>
      <trkpt lat="59.4264499471" lon="17.8223459981">
        <ele>33.8</ele>
        <time>2011-10-25T18:58:52Z</time>
      </trkpt>
      <trkpt lat="59.4264669623" lon="17.8223369457">
        <ele>33.8</ele>
        <time>2011-10-25T18:58:53Z</time>
      </trkpt>
      <trkpt lat="59.4264839776" lon="17.8223339282">
        <ele>33.8</ele>
        <time>2011-10-25T18:58:54Z</time>
      </trkpt>
      <trkpt lat="59.4265009928" lon="17.8223229479">
        <ele>33.8</ele>
        <time>2011-10-25T18:58:55Z</time>
      </trkpt>
      <trkpt lat="59.4265149906" lon="17.8223129734">
        <ele>34</ele>
        <time>2011-10-25T18:58:56Z</time>
      </trkpt>
      <trkpt lat="59.4265299942" lon="17.822296964">
        <ele>34</ele>
        <time>2011-10-25T18:58:57Z</time>
      </trkpt>
      <trkpt lat="59.4265479315" lon="17.8222809546">
        <ele>34.2</ele>
        <time>2011-10-25T18:58:58Z</time>
      </trkpt>
      <trkpt lat="59.4265609235" lon="17.8222679626">
        <ele>34.2</ele>
        <time>2011-10-25T18:58:59Z</time>
      </trkpt>
      <trkpt lat="59.4265759271" lon="17.822246924">
        <ele>34.2</ele>
        <time>2011-10-25T18:59:00Z</time>
      </trkpt>
      <trkpt lat="59.4265909307" lon="17.8222279809">
        <ele>34.4</ele>
        <time>2011-10-25T18:59:01Z</time>
      </trkpt>
      <trkpt lat="59.4266069401" lon="17.8222099598">
        <ele>34.4</ele>
        <time>2011-10-25T18:59:02Z</time>
      </trkpt>
      <trkpt lat="59.4266219437" lon="17.8221949562">
        <ele>34.6</ele>
        <time>2011-10-25T18:59:03Z</time>
      </trkpt>
      <trkpt lat="59.4266349357" lon="17.8221849818">
        <ele>34.6</ele>
        <time>2011-10-25T18:59:04Z</time>
      </trkpt>
      <trkpt lat="59.4266479276" lon="17.8221739177">
        <ele>34.6</ele>
        <time>2011-10-25T18:59:05Z</time>
      </trkpt>
      <trkpt lat="59.4266609196" lon="17.822164949">
        <ele>34.6</ele>
        <time>2011-10-25T18:59:06Z</time>
      </trkpt>
      <trkpt lat="59.4266719837" lon="17.8221589979">
        <ele>34.8</ele>
        <time>2011-10-25T18:59:07Z</time>
      </trkpt>
      <trkpt lat="59.4266849756" lon="17.8221489396">
        <ele>34.8</ele>
        <time>2011-10-25T18:59:08Z</time>
      </trkpt>
      <trkpt lat="59.4266999792" lon="17.8221389651">
        <ele>34.8</ele>
        <time>2011-10-25T18:59:09Z</time>
      </trkpt>
      <trkpt lat="59.4267119654" lon="17.8221309185">
        <ele>34.8</ele>
        <time>2011-10-25T18:59:10Z</time>
      </trkpt>
      <trkpt lat="59.4267249573" lon="17.8221179266">
        <ele>34.8</ele>
        <time>2011-10-25T18:59:11Z</time>
      </trkpt>
      <trkpt lat="59.4267379493" lon="17.8221109696">
        <ele>34.8</ele>
        <time>2011-10-25T18:59:12Z</time>
      </trkpt>
      <trkpt lat="59.426757982" lon="17.8220929485">
        <ele>34.8</ele>
        <time>2011-10-25T18:59:13Z</time>
      </trkpt>
      <trkpt lat="59.4267759193" lon="17.8220859915">
        <ele>34.8</ele>
        <time>2011-10-25T18:59:14Z</time>
      </trkpt>
      <trkpt lat="59.4267929345" lon="17.8220739216">
        <ele>34.8</ele>
        <time>2011-10-25T18:59:15Z</time>
      </trkpt>
      <trkpt lat="59.4268129673" lon="17.8220699821">
        <ele>34.8</ele>
        <time>2011-10-25T18:59:16Z</time>
      </trkpt>
      <trkpt lat="59.4268269651" lon="17.8220719937">
        <ele>34.8</ele>
        <time>2011-10-25T18:59:17Z</time>
      </trkpt>
      <trkpt lat="59.4268419687" lon="17.8220639471">
        <ele>34.8</ele>
        <time>2011-10-25T18:59:18Z</time>
      </trkpt>
      <trkpt lat="59.4268559664" lon="17.8220549785">
        <ele>34.8</ele>
        <time>2011-10-25T18:59:19Z</time>
      </trkpt>
      <trkpt lat="59.4268699642" lon="17.822038969">
        <ele>34.8</ele>
        <time>2011-10-25T18:59:20Z</time>
      </trkpt>
      <trkpt lat="59.4268849678" lon="17.8220319282">
        <ele>34.8</ele>
        <time>2011-10-25T18:59:21Z</time>
      </trkpt>
      <trkpt lat="59.4268989656" lon="17.8220189363">
        <ele>34.8</ele>
        <time>2011-10-25T18:59:22Z</time>
      </trkpt>
      <trkpt lat="59.4269089401" lon="17.8220109735">
        <ele>34.8</ele>
        <time>2011-10-25T18:59:23Z</time>
      </trkpt>
      <trkpt lat="59.4269189984" lon="17.8219989873">
        <ele>34.8</ele>
        <time>2011-10-25T18:59:24Z</time>
      </trkpt>
      <trkpt lat="59.4269309845" lon="17.8219879232">
        <ele>34.8</ele>
        <time>2011-10-25T18:59:25Z</time>
      </trkpt>
      <trkpt lat="59.4269309845" lon="17.8219879232">
        <ele>34.8</ele>
        <time>2011-10-25T18:59:26Z</time>
      </trkpt>
      <trkpt lat="59.4269509334" lon="17.8219669685">
        <ele>34.8</ele>
        <time>2011-10-25T18:59:27Z</time>
      </trkpt>
      <trkpt lat="59.4269619975" lon="17.8219519649">
        <ele>34.8</ele>
        <time>2011-10-25T18:59:28Z</time>
      </trkpt>
      <trkpt lat="59.4269729778" lon="17.8219339438">
        <ele>34.8</ele>
        <time>2011-10-25T18:59:29Z</time>
      </trkpt>
      <trkpt lat="59.4269879814" lon="17.8219139948">
        <ele>34.8</ele>
        <time>2011-10-25T18:59:30Z</time>
      </trkpt>
      <trkpt lat="59.4269979559" lon="17.8218979854">
        <ele>34.8</ele>
        <time>2011-10-25T18:59:31Z</time>
      </trkpt>
      <trkpt lat="59.4270089362" lon="17.8218829818">
        <ele>34.8</ele>
        <time>2011-10-25T18:59:32Z</time>
      </trkpt>
      <trkpt lat="59.4270199165" lon="17.8218659665">
        <ele>34.8</ele>
        <time>2011-10-25T18:59:33Z</time>
      </trkpt>
      <trkpt lat="59.4270289689" lon="17.8218499571">
        <ele>34.8</ele>
        <time>2011-10-25T18:59:34Z</time>
      </trkpt>
      <trkpt lat="59.4270399492" lon="17.8218349535">
        <ele>34.8</ele>
        <time>2011-10-25T18:59:35Z</time>
      </trkpt>
      <trkpt lat="59.4270489179" lon="17.8218199499">
        <ele>34.8</ele>
        <time>2011-10-25T18:59:36Z</time>
      </trkpt>
      <trkpt lat="59.4270779192" lon="17.8217829857">
        <ele>34.8</ele>
        <time>2011-10-25T18:59:37Z</time>
      </trkpt>
      <trkpt lat="59.4270939287" lon="17.8217709996">
        <ele>34.8</ele>
        <time>2011-10-25T18:59:38Z</time>
      </trkpt>
      <trkpt lat="59.4270939287" lon="17.8217709996">
        <ele>34.8</ele>
        <time>2011-10-25T18:59:39Z</time>
      </trkpt>
      <trkpt lat="59.4271079265" lon="17.821749961">
        <ele>34.8</ele>
        <time>2011-10-25T18:59:40Z</time>
      </trkpt>
      <trkpt lat="59.4271189906" lon="17.8217309341">
        <ele>34.8</ele>
        <time>2011-10-25T18:59:41Z</time>
      </trkpt>
      <trkpt lat="59.4271299709" lon="17.8217149246">
        <ele>34.8</ele>
        <time>2011-10-25T18:59:42Z</time>
      </trkpt>
      <trkpt lat="59.4271609839" lon="17.8216739371">
        <ele>34.8</ele>
        <time>2011-10-25T18:59:44Z</time>
      </trkpt>
      <trkpt lat="59.4271689467" lon="17.8216579277">
        <ele>34.8</ele>
        <time>2011-10-25T18:59:45Z</time>
      </trkpt>
      <trkpt lat="59.4271689467" lon="17.8216579277">
        <ele>34.8</ele>
        <time>2011-10-25T18:59:46Z</time>
      </trkpt>
      <trkpt lat="59.4271779992" lon="17.8216389846">
        <ele>34.6</ele>
        <time>2011-10-25T18:59:47Z</time>
      </trkpt>
      <trkpt lat="59.4271829445" lon="17.8216289263">
        <ele>34.6</ele>
        <time>2011-10-25T18:59:48Z</time>
      </trkpt>
      <trkpt lat="59.4271889795" lon="17.8216189519">
        <ele>34.6</ele>
        <time>2011-10-25T18:59:49Z</time>
      </trkpt>
      <trkpt lat="59.4271969423" lon="17.821592968">
        <ele>34.6</ele>
        <time>2011-10-25T18:59:50Z</time>
      </trkpt>
      <trkpt lat="59.4272049889" lon="17.8215719294">
        <ele>34.6</ele>
        <time>2011-10-25T18:59:51Z</time>
      </trkpt>
      <trkpt lat="59.4272179808" lon="17.8215439338">
        <ele>34.6</ele>
        <time>2011-10-25T18:59:52Z</time>
      </trkpt>
      <trkpt lat="59.4272309728" lon="17.8215109929">
        <ele>34.6</ele>
        <time>2011-10-25T18:59:53Z</time>
      </trkpt>
      <trkpt lat="59.4272449706" lon="17.8214799799">
        <ele>34.6</ele>
        <time>2011-10-25T18:59:54Z</time>
      </trkpt>
      <trkpt lat="59.4272579625" lon="17.8214529902">
        <ele>34.6</ele>
        <time>2011-10-25T18:59:55Z</time>
      </trkpt>
      <trkpt lat="59.4272689428" lon="17.8214189596">
        <ele>34.6</ele>
        <time>2011-10-25T18:59:56Z</time>
      </trkpt>
      <trkpt lat="59.4272769894" lon="17.8213889524">
        <ele>34.6</ele>
        <time>2011-10-25T18:59:57Z</time>
      </trkpt>
      <trkpt lat="59.4272849523" lon="17.8213589452">
        <ele>34.6</ele>
        <time>2011-10-25T18:59:58Z</time>
      </trkpt>
      <trkpt lat="59.4272919931" lon="17.8213319555">
        <ele>34.6</ele>
        <time>2011-10-25T18:59:59Z</time>
      </trkpt>
      <trkpt lat="59.4272999559" lon="17.8213049658">
        <ele>34.6</ele>
        <time>2011-10-25T19:00:00Z</time>
      </trkpt>
      <trkpt lat="59.4273089245" lon="17.8212839272">
        <ele>34.6</ele>
        <time>2011-10-25T19:00:01Z</time>
      </trkpt>
      <trkpt lat="59.4273219164" lon="17.8212799877">
        <ele>34.6</ele>
        <time>2011-10-25T19:00:02Z</time>
      </trkpt>
      <trkpt lat="59.4273399375" lon="17.8212759644">
        <ele>34.4</ele>
        <time>2011-10-25T19:00:03Z</time>
      </trkpt>
    </trkseg>
  </trk>
</gpx>